Time;durP1;ratioP1;P1;durP2;ratioP2;P2;SDS_P1;SDS_P2;PMS_P1;PMS_P2;Temp;Humidity;BMP_temperature;BMP_pressure;BME280_temperature;BME280_humidity;BME280_pressure;Samples;Min_cycle;Max_cycle;Signal;HPM_P1;HPM_P2
2024/01/19 00:00:35;;;;;;;5.80;4.50;;;;;;;2.07;58.22;95636.53;5052584;28;20231;-67
2024/01/19 00:03:01;;;;;;;6.93;5.37;;;;;;;1.90;59.02;95639.50;5051767;28;20174;-64
2024/01/19 00:05:26;;;;;;;7.20;4.40;;;;;;;1.89;59.41;95642.94;5065808;28;20178;-67
2024/01/19 00:07:51;;;;;;;6.73;4.20;;;;;;;2.10;58.95;95644.22;5065646;28;20647;-65
2024/01/19 00:10:17;;;;;;;7.30;5.30;;;;;;;2.11;58.45;95651.94;5065376;28;20630;-65
2024/01/19 00:12:42;;;;;;;7.63;4.33;;;;;;;1.81;59.66;95652.63;5065573;28;20166;-67
2024/01/19 00:15:09;;;;;;;6.40;4.87;;;;;;;1.93;59.87;95652.34;5065123;28;20201;-67
2024/01/19 00:17:35;;;;;;;7.50;4.80;;;;;;;2.02;59.43;95666.84;5064090;28;20201;-66
2024/01/19 00:20:01;;;;;;;8.20;4.67;;;;;;;1.80;59.43;95663.88;5064447;28;20435;-66
2024/01/19 00:22:26;;;;;;;7.47;4.60;;;;;;;1.81;60.08;95670.72;5064484;28;20494;-67
2024/01/19 00:24:52;;;;;;;6.87;4.57;;;;;;;2.00;59.89;95679.78;5064427;28;20181;-67
2024/01/19 00:27:17;;;;;;;6.70;5.10;;;;;;;2.09;59.67;95686.50;5063391;28;20253;-67
2024/01/19 00:29:42;;;;;;;8.00;4.87;;;;;;;1.81;59.96;95687.09;5064502;28;20747;-68
2024/01/19 00:32:08;;;;;;;6.90;5.43;;;;;;;2.02;59.68;95680.63;5064494;28;20171;-66
2024/01/19 00:34:33;;;;;;;4.87;4.27;;;;;;;2.05;59.36;95692.63;5064522;28;20201;-69
2024/01/19 00:36:58;;;;;;;7.63;4.80;;;;;;;2.04;58.77;95688.34;5064859;28;20188;-69
2024/01/19 00:39:24;;;;;;;5.70;4.40;;;;;;;2.01;59.50;95694.44;5064626;28;20611;-67
2024/01/19 00:41:49;;;;;;;5.73;4.60;;;;;;;2.18;59.00;95701.84;5064249;28;20837;-67
2024/01/19 00:44:15;;;;;;;6.77;4.57;;;;;;;2.09;59.21;95699.44;5064601;28;20634;-67
2024/01/19 00:46:40;;;;;;;8.27;5.07;;;;;;;1.99;60.07;95706.56;5050639;28;20202;-67
2024/01/19 00:49:05;;;;;;;6.93;5.27;;;;;;;2.14;59.77;95696.75;5044086;28;20203;-67
2024/01/19 00:51:31;;;;;;;7.07;5.13;;;;;;;2.23;58.94;95700.00;5044575;28;20749;-67
2024/01/19 00:53:56;;;;;;;7.10;4.50;;;;;;;2.10;59.01;95702.03;5044257;28;20178;-66
2024/01/19 00:56:22;;;;;;;6.63;5.30;;;;;;;2.28;58.82;95712.84;5044189;28;20656;-68
2024/01/19 00:58:47;;;;;;;6.03;4.70;;;;;;;2.26;58.51;95712.88;5043701;28;20752;-68
2024/01/19 01:01:13;;;;;;;9.00;4.90;;;;;;;2.17;58.99;95710.47;5043988;28;20199;-66
2024/01/19 01:03:39;;;;;;;12.57;6.90;;;;;;;2.18;59.20;95712.19;5052340;28;20286;-66
2024/01/19 01:06:05;;;;;;;6.23;5.03;;;;;;;2.06;59.41;95715.91;5064202;28;20586;-67
2024/01/19 01:08:32;;;;;;;8.20;6.00;;;;;;;2.35;59.73;95718.72;5063933;28;20190;-67
2024/01/19 01:10:58;;;;;;;9.43;7.10;;;;;;;2.19;60.17;95723.41;5064196;28;20194;-66
2024/01/19 01:13:23;;;;;;;7.10;5.17;;;;;;;1.98;60.53;95735.06;5064294;28;20419;-67
2024/01/19 01:15:48;;;;;;;6.20;5.60;;;;;;;2.50;58.77;95736.50;5066600;28;20173;-68
2024/01/19 01:18:14;;;;;;;11.67;5.90;;;;;;;2.23;59.46;95743.16;5067893;28;20174;-68
2024/01/19 01:20:40;;;;;;;6.47;5.50;;;;;;;2.06;60.42;95744.38;5067403;28;20194;-68
2024/01/19 01:23:05;;;;;;;11.50;6.47;;;;;;;2.07;59.75;95758.16;5067893;28;20937;-67
2024/01/19 01:25:31;;;;;;;8.20;6.23;;;;;;;2.06;60.66;95765.06;5068016;28;20227;-67
2024/01/19 01:27:57;;;;;;;7.50;5.93;;;;;;;2.22;60.36;95760.44;5067635;28;20178;-68
2024/01/19 01:30:23;;;;;;;11.50;7.23;;;;;;;2.13;60.73;95760.63;5067351;28;20209;-68
2024/01/19 01:32:49;;;;;;;7.87;7.07;;;;;;;2.27;60.34;95774.13;5067669;28;20548;-64
2024/01/19 01:35:14;;;;;;;11.20;7.67;;;;;;;2.28;60.70;95774.97;5067609;28;20421;-68
2024/01/19 01:37:39;;;;;;;13.80;8.80;;;;;;;2.35;59.92;95776.53;5068480;28;20264;-66
2024/01/19 01:40:06;;;;;;;11.60;7.00;;;;;;;2.04;60.92;95786.69;5069480;28;20196;-67
2024/01/19 01:42:31;;;;;;;12.73;7.60;;;;;;;2.25;60.42;95791.41;5069794;28;20263;-67
2024/01/19 01:44:58;;;;;;;11.30;8.37;;;;;;;2.24;60.51;95797.47;5068054;28;20495;-68
2024/01/19 01:47:23;;;;;;;9.53;8.20;;;;;;;2.19;60.52;95793.28;5049643;28;20195;-68
2024/01/19 01:49:49;;;;;;;9.20;7.60;;;;;;;2.16;60.21;95795.94;5048927;28;20463;-65
2024/01/19 01:52:15;;;;;;;11.00;8.50;;;;;;;2.18;60.06;95801.94;5049858;28;20175;-66
2024/01/19 01:54:40;;;;;;;11.97;8.57;;;;;;;2.01;60.34;95808.31;5050206;28;20232;-65
2024/01/19 01:57:06;;;;;;;11.87;8.50;;;;;;;2.00;60.74;95816.94;5049522;28;20186;-68
2024/01/19 01:59:31;;;;;;;12.80;8.33;;;;;;;2.08;60.39;95827.16;5048174;28;20199;-68
2024/01/19 02:01:57;;;;;;;13.33;8.60;;;;;;;2.04;60.26;95825.50;5047334;28;20335;-68
2024/01/19 02:04:24;;;;;;;10.80;8.40;;;;;;;2.09;60.40;95834.03;5061428;28;20181;-67
2024/01/19 02:06:49;;;;;;;14.43;9.03;;;;;;;2.19;60.18;95838.13;5067054;28;20546;-65
2024/01/19 02:09:16;;;;;;;12.43;9.60;;;;;;;2.01;60.44;95839.38;5066613;28;20432;-68
2024/01/19 02:11:42;;;;;;;8.53;7.57;;;;;;;2.28;59.70;95834.50;5067142;28;20178;-65
2024/01/19 02:14:09;;;;;;;13.10;9.23;;;;;;;2.16;60.53;95843.38;5068181;28;20420;-67
2024/01/19 02:16:35;;;;;;;13.93;9.33;;;;;;;1.92;61.16;95843.88;5066940;28;20506;-66
2024/01/19 02:19:00;;;;;;;15.43;9.23;;;;;;;1.95;61.39;95844.66;5067040;28;20408;-66
2024/01/19 02:21:26;;;;;;;11.67;8.83;;;;;;;2.08;60.47;95843.53;5067004;28;21065;-67
2024/01/19 02:24:01;;;;;;;11.90;9.77;;;;;;;2.06;60.49;95847.88;5067011;28;20186;-68
2024/01/19 02:26:28;;;;;;;10.40;8.57;;;;;;;2.01;60.65;95854.91;5066303;28;20871;-66
2024/01/19 02:28:53;;;;;;;12.73;9.27;;;;;;;1.78;60.51;95852.72;5065173;28;20501;-67
2024/01/19 02:31:19;;;;;;;12.27;8.97;;;;;;;2.10;60.85;95854.72;5066730;28;20408;-66
2024/01/19 02:33:47;;;;;;;11.10;8.97;;;;;;;2.02;60.85;95861.75;5066835;28;20673;-66
2024/01/19 02:36:12;;;;;;;14.33;8.67;;;;;;;1.96;60.45;95858.44;5067243;28;20704;-67
2024/01/19 02:38:38;;;;;;;12.30;9.40;;;;;;;2.03;60.17;95854.84;5066775;28;20443;-68
2024/01/19 02:41:03;;;;;;;14.23;9.07;;;;;;;2.09;60.08;95859.91;5065499;28;20206;-67
2024/01/19 02:43:30;;;;;;;9.70;7.70;;;;;;;2.05;59.55;95860.84;5067438;28;20223;-65
2024/01/19 02:45:56;;;;;;;8.80;7.40;;;;;;;2.25;58.93;95871.69;5059796;28;20171;-67
2024/01/19 02:48:21;;;;;;;13.57;8.00;;;;;;;2.04;58.68;95867.75;5047531;28;20417;-67
2024/01/19 02:50:46;;;;;;;9.73;8.13;;;;;;;2.22;58.03;95868.28;5047480;28;20673;-66
2024/01/19 02:53:12;;;;;;;16.57;7.73;;;;;;;2.10;57.99;95870.25;5047984;28;20178;-68
2024/01/19 02:55:37;;;;;;;9.13;7.40;;;;;;;2.01;58.15;95874.72;5047604;28;20211;-67
2024/01/19 02:58:03;;;;;;;9.70;7.17;;;;;;;1.94;58.18;95883.47;5048078;28;20230;-66
2024/01/19 03:00:29;;;;;;;10.10;7.47;;;;;;;2.06;57.92;95870.34;5049505;28;20252;-66
2024/01/19 03:02:54;;;;;;;9.80;8.07;;;;;;;2.12;57.68;95872.78;5050800;28;20202;-67
2024/01/19 03:05:20;;;;;;;10.63;7.43;;;;;;;2.23;57.38;95880.34;5049553;28;20423;-66
2024/01/19 03:07:45;;;;;;;9.03;7.10;;;;;;;2.16;57.03;95883.94;5052460;28;20515;-66
2024/01/19 03:10:10;;;;;;;13.37;8.20;;;;;;;2.17;57.25;95889.06;5052870;28;20194;-67
2024/01/19 03:12:36;;;;;;;8.67;6.80;;;;;;;2.22;57.21;95892.47;5053424;28;20233;-67
2024/01/19 03:15:02;;;;;;;9.97;8.40;;;;;;;2.14;57.37;95891.72;5053327;28;20262;-66
2024/01/19 03:17:28;;;;;;;10.43;7.63;;;;;;;2.11;57.56;95892.66;5053347;28;20258;-66
2024/01/19 03:19:53;;;;;;;9.57;7.00;;;;;;;2.12;57.15;95888.31;5047923;28;20233;-65
2024/01/19 03:22:19;;;;;;;20.20;8.13;;;;;;;2.07;57.37;95898.75;5046204;28;20457;-67
2024/01/19 03:24:44;;;;;;;14.80;8.80;;;;;;;1.93;57.97;95887.81;5046000;28;20174;-67
2024/01/19 03:27:09;;;;;;;11.00;8.00;;;;;;;2.09;57.77;95899.59;5045923;28;20194;-66
2024/01/19 03:29:35;;;;;;;12.37;7.27;;;;;;;2.15;57.74;95890.00;5045537;28;20195;-67
2024/01/19 03:32:00;;;;;;;12.70;8.53;;;;;;;1.89;58.25;95889.63;5045372;28;20271;-66
2024/01/19 03:34:25;;;;;;;10.83;6.97;;;;;;;2.01;57.57;95891.13;5045505;28;20214;-66
2024/01/19 03:36:51;;;;;;;11.67;8.37;;;;;;;2.02;58.03;95897.16;5045973;28;20182;-67
2024/01/19 03:39:18;;;;;;;13.43;8.83;;;;;;;2.01;57.99;95908.38;5044099;28;20665;-65
2024/01/19 03:41:43;;;;;;;9.27;8.07;;;;;;;2.21;57.09;95901.09;5046492;28;20986;-67
2024/01/19 03:44:09;;;;;;;10.97;7.97;;;;;;;2.08;57.34;95907.41;5045748;28;20491;-65
2024/01/19 03:46:34;;;;;;;11.10;8.40;;;;;;;2.05;57.30;95905.69;5045634;28;20171;-67
2024/01/19 03:48:59;;;;;;;9.70;6.83;;;;;;;1.95;57.78;95905.91;5047643;28;20528;-69
2024/01/19 03:51:25;;;;;;;10.57;7.67;;;;;;;1.83;58.01;95914.75;5046613;28;20541;-67
2024/01/19 03:53:50;;;;;;;11.63;7.27;;;;;;;1.77;58.64;95917.41;5045914;28;20177;-67
2024/01/19 03:56:16;;;;;;;14.93;7.90;;;;;;;1.68;58.65;95916.72;5045412;28;20763;-67
2024/01/19 03:58:41;;;;;;;8.60;6.60;;;;;;;1.64;58.30;95914.19;5045528;28;20273;-66
2024/01/19 04:01:07;;;;;;;9.43;7.10;;;;;;;1.61;59.15;95922.88;5045495;28;20212;-64
2024/01/19 04:03:33;;;;;;;9.20;7.00;;;;;;;1.72;59.10;95919.22;5053251;28;20184;-64
2024/01/19 04:05:59;;;;;;;9.10;7.77;;;;;;;1.66;59.22;95927.97;5065476;28;20412;-67
2024/01/19 04:08:26;;;;;;;8.90;7.00;;;;;;;1.71;58.92;95925.31;5065329;28;20250;-65
2024/01/19 04:10:51;;;;;;;9.10;7.10;;;;;;;1.82;59.16;95913.88;5065178;28;20433;-67
2024/01/19 04:13:17;;;;;;;11.23;7.53;;;;;;;1.66;59.75;95928.81;5065635;28;20943;-65
2024/01/19 04:15:42;;;;;;;9.73;7.73;;;;;;;1.81;59.55;95927.69;5065529;28;20170;-68
2024/01/19 04:18:07;;;;;;;10.63;7.00;;;;;;;1.72;59.33;95925.25;5065165;28;20178;-68
2024/01/19 04:20:33;;;;;;;10.67;7.73;;;;;;;1.76;59.08;95926.06;5064736;28;20198;-68
2024/01/19 04:22:58;;;;;;;13.63;8.33;;;;;;;1.75;59.22;95930.41;5065126;28;20209;-67
2024/01/19 04:25:24;;;;;;;16.87;12.23;;;;;;;1.61;59.55;95928.03;5064227;28;20182;-68
2024/01/19 04:27:49;;;;;;;11.70;8.93;;;;;;;1.55;59.86;95927.28;5065716;28;20189;-67
2024/01/19 04:30:14;;;;;;;16.33;10.10;;;;;;;1.68;59.69;95928.78;5065019;28;20708;-68
2024/01/19 04:32:40;;;;;;;9.03;7.13;;;;;;;1.64;59.15;95934.88;5069618;28;20629;-68
2024/01/19 04:35:06;;;;;;;12.63;8.93;;;;;;;1.62;59.18;95939.22;5078855;28;20221;-68
2024/01/19 04:37:31;;;;;;;11.90;7.87;;;;;;;1.79;58.97;95939.78;5078469;28;20193;-67
2024/01/19 04:39:56;;;;;;;11.00;7.73;;;;;;;1.56;59.34;95950.53;5079564;28;20190;-70
2024/01/19 04:42:22;;;;;;;14.83;8.20;;;;;;;1.59;59.09;95968.59;5085346;28;20197;-68
2024/01/19 04:44:47;;;;;;;9.90;8.00;;;;;;;1.65;58.94;95962.44;5088071;28;20227;-66
2024/01/19 04:47:13;;;;;;;11.40;8.10;;;;;;;1.63;59.59;95959.91;5079975;28;20159;-68
2024/01/19 04:49:38;;;;;;;11.03;7.73;;;;;;;1.77;59.09;95967.44;5077162;28;20204;-67
2024/01/19 04:52:04;;;;;;;10.90;7.07;;;;;;;1.59;59.57;95971.16;5071595;28;20162;-68
2024/01/19 04:54:29;;;;;;;10.97;7.13;;;;;;;1.23;60.55;95988.09;5070271;28;20170;-67
2024/01/19 04:56:55;;;;;;;16.13;7.63;;;;;;;1.61;60.28;95976.31;5069979;28;20173;-69
2024/01/19 04:59:20;;;;;;;12.77;8.80;;;;;;;1.54;59.74;95974.72;5069338;28;20552;-67
2024/01/19 05:01:45;;;;;;;15.10;8.70;;;;;;;1.58;59.69;95968.59;5069127;28;20281;-67
2024/01/19 05:04:11;;;;;;;11.50;8.50;;;;;;;1.58;59.82;95968.59;5069083;28;20167;-67
2024/01/19 05:06:36;;;;;;;11.53;7.83;;;;;;;1.55;60.35;95972.09;5067248;28;20681;-66
2024/01/19 05:09:02;;;;;;;8.70;7.17;;;;;;;1.60;60.44;95972.00;5069248;28;20197;-67
2024/01/19 05:11:27;;;;;;;12.83;7.10;;;;;;;1.39;60.44;95980.94;5069647;28;20173;-65
2024/01/19 05:13:53;;;;;;;13.40;8.27;;;;;;;1.39;60.82;95983.53;5069205;28;20170;-68
2024/01/19 05:16:18;;;;;;;15.40;8.20;;;;;;;1.45;60.55;95986.03;5069070;28;20289;-67
2024/01/19 05:18:43;;;;;;;12.33;8.30;;;;;;;1.47;60.67;95985.13;5069273;28;20178;-67
2024/01/19 05:21:09;;;;;;;11.50;7.87;;;;;;;1.19;61.36;96007.09;5068505;28;20619;-67
2024/01/19 05:23:34;;;;;;;13.50;7.83;;;;;;;1.39;60.51;96001.63;5068403;28;20170;-68
2024/01/19 05:26:02;;;;;;;12.70;7.80;;;;;;;1.41;60.32;96007.63;5068370;28;20166;-67
2024/01/19 05:28:27;;;;;;;15.23;8.40;;;;;;;0.92;61.42;96009.19;5067700;28;20185;-67
2024/01/19 05:30:53;;;;;;;10.80;8.50;;;;;;;0.99;62.33;96013.38;5068068;28;20429;-68
2024/01/19 05:33:19;;;;;;;16.07;9.53;;;;;;;0.72;62.98;96021.47;5066038;28;20261;-68
2024/01/19 05:35:44;;;;;;;14.80;9.60;;;;;;;0.84;63.35;96026.47;5078816;28;20566;-66
2024/01/19 05:38:09;;;;;;;10.50;9.33;;;;;;;0.76;63.15;96028.31;5087921;28;20658;-66
2024/01/19 05:40:35;;;;;;;15.07;9.93;;;;;;;0.91;62.90;96037.59;5087371;28;20529;-67
2024/01/19 05:43:00;;;;;;;15.50;9.90;;;;;;;1.02;62.55;96036.59;5087287;28;20196;-66
2024/01/19 05:45:25;;;;;;;17.07;10.43;;;;;;;1.08;61.64;96043.41;5084194;28;20787;-66
2024/01/19 05:47:51;;;;;;;14.73;10.60;;;;;;;1.22;61.07;96049.25;5068031;28;20617;-67
2024/01/19 05:50:16;;;;;;;16.13;11.07;;;;;;;1.25;60.29;96053.53;5067731;28;20186;-68
2024/01/19 05:52:42;;;;;;;16.13;11.93;;;;;;;1.27;60.33;96052.63;5067968;28;20844;-67
2024/01/19 05:55:08;;;;;;;16.13;9.50;;;;;;;1.09;60.45;96055.47;5068108;28;20257;-67
2024/01/19 05:57:33;;;;;;;18.23;9.60;;;;;;;1.24;60.08;96057.00;5068868;28;20754;-68
2024/01/19 05:59:59;;;;;;;12.73;9.10;;;;;;;1.31;60.24;96074.13;5067813;28;20436;-67
2024/01/19 06:02:24;;;;;;;14.00;9.53;;;;;;;1.32;60.04;96075.81;5067063;28;20194;-67
2024/01/19 06:04:51;;;;;;;14.40;10.00;;;;;;;1.37;58.73;96068.00;5084942;28;20244;-68
2024/01/19 06:07:16;;;;;;;13.23;9.73;;;;;;;1.30;58.96;96071.56;5083553;28;20184;-68
2024/01/19 06:09:42;;;;;;;15.80;9.60;;;;;;;1.54;58.41;96075.56;5088118;28;20436;-66
2024/01/19 06:12:07;;;;;;;13.67;9.37;;;;;;;1.38;58.55;96080.94;5088526;28;20192;-65
2024/01/19 06:14:33;;;;;;;15.60;9.77;;;;;;;1.25;59.29;96076.78;5080763;28;20193;-68
2024/01/19 06:16:58;;;;;;;16.13;9.97;;;;;;;1.54;58.07;96083.31;5077276;28;20188;-68
2024/01/19 06:19:23;;;;;;;14.90;10.33;;;;;;;1.45;58.92;96087.72;5091444;28;20212;-67
2024/01/19 06:21:49;;;;;;;14.43;10.20;;;;;;;1.30;59.33;96100.00;5082323;28;20205;-67
2024/01/19 06:24:15;;;;;;;14.00;9.93;;;;;;;0.94;59.52;96105.56;5079478;28;20180;-69
2024/01/19 06:26:48;;;;;;;13.80;10.37;;;;;;;0.92;60.41;96102.19;5082179;28;20541;-69
2024/01/19 06:29:14;;;;;;;14.93;10.80;;;;;;;1.17;59.96;96102.72;5087600;28;20455;-69
2024/01/19 06:31:47;;;;;;;17.93;11.40;;;;;;;1.28;59.40;96100.03;5085524;28;20702;-67
2024/01/19 06:34:13;;;;;;;17.33;11.27;;;;;;;1.33;59.17;96111.16;5070493;28;20478;-67
2024/01/19 06:36:43;;;;;;;15.93;10.50;;;;;;;1.07;60.22;96111.47;5080698;28;20436;-67
2024/01/19 06:39:09;;;;;;;16.50;10.97;;;;;;;1.20;59.76;96117.34;5078473;28;20466;-67
2024/01/19 06:41:34;;;;;;;15.73;11.07;;;;;;;1.10;59.81;96121.75;5077614;28;20827;-67
2024/01/19 06:44:00;;;;;;;13.90;11.10;;;;;;;1.09;60.40;96126.94;5077828;28;20185;-67
2024/01/19 06:46:25;;;;;;;15.53;11.23;;;;;;;1.02;60.85;96134.78;5079584;28;20270;-68
2024/01/19 06:48:51;;;;;;;17.53;11.33;;;;;;;1.12;60.34;96134.69;5071947;28;20762;-66
2024/01/19 06:51:17;;;;;;;19.40;11.80;;;;;;;1.09;60.55;96147.63;5067973;28;21003;-66
2024/01/19 06:53:42;;;;;;;15.20;12.20;;;;;;;1.21;59.94;96139.75;5074608;28;20440;-67
2024/01/19 06:56:08;;;;;;;14.40;10.67;;;;;;;0.53;61.58;96150.75;5074030;28;20182;-67
2024/01/19 06:58:33;;;;;;;21.87;11.30;;;;;;;1.01;61.19;96156.31;5065199;28;20182;-67
2024/01/19 07:00:58;;;;;;;16.70;12.23;;;;;;;1.03;60.66;96162.31;5073857;28;20206;-67
2024/01/19 07:03:24;;;;;;;16.77;11.07;;;;;;;0.96;60.62;96160.66;5065854;28;20206;-67
2024/01/19 07:05:49;;;;;;;18.60;11.47;;;;;;;1.10;60.17;96170.00;5074454;28;20642;-67
2024/01/19 07:08:15;;;;;;;15.47;10.33;;;;;;;1.04;60.77;96168.38;5070429;28;20692;-67
2024/01/19 07:10:40;;;;;;;18.30;11.80;;;;;;;1.12;60.76;96181.19;5080654;28;20208;-66
2024/01/19 07:13:06;;;;;;;15.63;12.53;;;;;;;0.99;59.79;96183.91;5069138;28;20216;-67
2024/01/19 07:15:31;;;;;;;17.10;13.07;;;;;;;1.13;60.07;96188.91;5075852;28;20593;-67
2024/01/19 07:17:57;;;;;;;19.23;12.27;;;;;;;1.13;59.97;96188.91;5075857;28;20186;-66
2024/01/19 07:20:22;;;;;;;21.70;13.20;;;;;;;1.11;58.77;96194.97;5076441;28;20922;-68
2024/01/19 07:22:51;;;;;;;18.30;12.80;;;;;;;1.07;59.16;96206.22;5075763;28;20228;-67
2024/01/19 07:25:16;;;;;;;20.23;12.13;;;;;;;1.14;59.10;96206.16;5068670;28;20188;-67
2024/01/19 07:27:42;;;;;;;17.20;12.10;;;;;;;1.11;60.13;96223.41;5067286;28;20907;-63
2024/01/19 07:30:07;;;;;;;18.77;13.77;;;;;;;0.98;59.10;96226.09;5068125;28;20228;-64
2024/01/19 07:32:33;;;;;;;16.70;12.40;;;;;;;1.11;59.45;96229.44;5076224;28;20265;-66
2024/01/19 07:34:58;;;;;;;20.10;14.10;;;;;;;1.18;59.38;96235.38;5068939;28;20192;-67
2024/01/19 07:37:23;;;;;;;17.67;13.40;;;;;;;1.05;59.91;96234.66;5058266;28;20708;-67
2024/01/19 07:39:49;;;;;;;18.73;12.97;;;;;;;1.12;59.84;96238.91;5070031;28;20211;-67
2024/01/19 07:42:14;;;;;;;16.90;12.30;;;;;;;1.11;59.36;96242.38;5069534;27;20204;-67
2024/01/19 07:44:39;;;;;;;20.53;12.50;;;;;;;1.10;59.51;96250.97;5073134;28;20924;-66
2024/01/19 07:47:05;;;;;;;20.53;12.70;;;;;;;1.07;59.61;96251.00;5057163;28;20284;-67
2024/01/19 07:49:30;;;;;;;21.27;13.03;;;;;;;1.23;59.97;96254.31;5057479;28;20236;-67
2024/01/19 07:51:55;;;;;;;22.07;13.53;;;;;;;1.08;60.00;96255.28;5061744;28;20170;-67
2024/01/19 07:54:21;;;;;;;22.07;12.60;;;;;;;1.17;60.37;96254.38;5061438;28;20214;-68
2024/01/19 07:56:46;;;;;;;10.27;7.60;;;;;;;3.38;84.76;96247.00;5065671;28;20209;-67
2024/01/19 07:59:12;;;;;;;22.63;14.70;;;;;;;4.32;55.61;96247.72;5067445;28;20896;-67
2024/01/19 08:01:38;;;;;;;27.53;14.83;;;;;;;2.86;57.10;96259.97;5054479;28;20670;-65
2024/01/19 08:04:04;;;;;;;24.43;14.13;;;;;;;2.33;57.75;96268.53;5063701;28;20179;-67
2024/01/19 08:06:29;;;;;;;30.10;14.47;;;;;;;1.90;58.52;96276.84;5064542;28;20440;-68
2024/01/19 08:08:56;;;;;;;25.37;14.37;;;;;;;1.96;58.69;96283.69;5075346;28;20174;-67
2024/01/19 08:11:21;;;;;;;19.00;12.83;;;;;;;1.83;58.68;96270.03;5063903;28;20170;-69
2024/01/19 08:13:47;;;;;;;15.37;12.93;;;;;;;2.05;58.05;96280.97;5063536;28;20471;-67
2024/01/19 08:16:12;;;;;;;19.67;13.20;;;;;;;1.92;58.28;96288.94;5057506;28;20186;-67
2024/01/19 08:18:37;;;;;;;18.47;13.07;;;;;;;1.95;58.36;96294.91;5058493;28;20175;-67
2024/01/19 08:21:03;;;;;;;23.27;13.80;;;;;;;2.30;57.16;96301.38;5065652;28;20198;-68
2024/01/19 08:23:29;;;;;;;23.77;15.23;;;;;;;2.15;57.01;96309.34;5058531;28;20247;-67
2024/01/19 08:25:55;;;;;;;16.47;12.17;;;;;;;2.19;57.15;96317.03;5067134;28;20178;-66
2024/01/19 08:28:20;;;;;;;20.43;13.57;;;;;;;2.17;57.27;96323.97;5053908;28;20500;-69
2024/01/19 08:30:46;;;;;;;17.23;13.20;;;;;;;2.18;56.93;96322.25;5055863;28;20204;-69
2024/01/19 08:33:12;;;;;;;19.73;13.43;;;;;;;2.32;56.96;96322.94;5063869;28;20832;-68
2024/01/19 08:35:38;;;;;;;19.10;12.90;;;;;;;2.45;56.56;96326.22;5066061;28;20748;-68
2024/01/19 08:38:04;;;;;;;18.57;12.27;;;;;;;2.31;56.54;96329.81;5060665;28;20444;-67
2024/01/19 08:40:29;;;;;;;23.23;13.97;;;;;;;2.23;57.22;96339.44;5064673;28;20194;-67
2024/01/19 08:42:54;;;;;;;17.00;12.57;;;;;;;2.08;57.32;96347.41;5057576;28;20216;-68
2024/01/19 08:45:20;;;;;;;22.53;14.13;;;;;;;2.02;57.75;96344.88;5060132;28;20174;-69
2024/01/19 08:47:48;;;;;;;20.33;14.50;;;;;;;2.15;57.41;96350.75;5064919;28;20228;-68
2024/01/19 08:50:13;;;;;;;17.67;14.27;;;;;;;2.33;56.99;96343.63;5065209;28;20201;-68
2024/01/19 08:52:39;;;;;;;17.37;13.50;;;;;;;2.43;56.81;96351.28;5069364;28;21529;-68
2024/01/19 08:55:04;;;;;;;18.83;13.33;;;;;;;2.52;57.03;96358.94;5067431;28;20179;-68
2024/01/19 08:57:31;;;;;;;21.93;14.50;;;;;;;2.49;57.07;96369.34;5064030;28;20179;-68
2024/01/19 08:59:56;;;;;;;22.50;15.63;;;;;;;2.61;56.83;96370.91;5069139;28;20209;-66
2024/01/19 09:02:22;;;;;;;23.60;13.30;;;;;;;2.62;56.70;96381.28;5065519;28;21335;-70
2024/01/19 09:04:48;;;;;;;22.80;14.50;;;;;;;2.75;56.39;96382.81;5071571;28;20717;-69
2024/01/19 09:07:14;;;;;;;16.80;12.87;;;;;;;2.74;56.51;96386.28;5069492;28;20260;-68
2024/01/19 09:09:40;;;;;;;19.57;14.53;;;;;;;2.95;55.72;96381.66;5068279;28;20545;-67
2024/01/19 09:12:06;;;;;;;22.63;14.67;;;;;;;2.92;55.46;96384.31;5069166;28;20181;-69
2024/01/19 09:14:32;;;;;;;25.77;13.47;;;;;;;2.91;55.84;96380.00;5061975;28;20935;-68
2024/01/19 09:16:58;;;;;;;23.10;13.90;;;;;;;3.17;54.93;96383.06;5065643;28;20435;-69
2024/01/19 09:19:24;;;;;;;25.33;13.30;;;;;;;3.56;53.55;96400.63;5066537;28;20229;-68
2024/01/19 09:21:50;;;;;;;18.00;12.90;;;;;;;3.42;53.70;96403.44;5067702;28;20975;-69
2024/01/19 09:24:16;;;;;;;19.87;13.37;;;;;;;3.54;53.11;96405.84;5062558;28;20181;-67
2024/01/19 09:26:42;;;;;;;19.60;13.10;;;;;;;3.56;53.50;96406.66;5062458;28;20591;-68
2024/01/19 09:29:10;;;;;;;18.70;12.17;;;;;;;3.74;53.27;96413.28;5068040;28;20546;-66
2024/01/19 09:31:46;;;;;;;18.50;14.00;;;;;;;3.56;53.28;96417.03;5070822;28;20192;-72
2024/01/19 09:34:12;;;;;;;23.13;14.27;;;;;;;4.37;51.94;96426.88;5074776;28;20429;-67
2024/01/19 09:36:39;;;;;;;22.67;13.10;;;;;;;5.35;48.83;96426.59;5089613;28;20818;-68
2024/01/19 09:39:05;;;;;;;17.20;12.60;;;;;;;6.33;46.35;96425.03;5080023;28;20751;-68
2024/01/19 09:41:39;;;;;;;21.80;13.90;;;;;;;7.02;44.89;96426.63;5072752;28;20495;-67
2024/01/19 09:44:16;;;;;;;22.87;13.20;;;;;;;6.57;45.26;96430.50;5071196;28;20782;-69
2024/01/19 09:47:15;;;;;;;23.23;14.33;;;;;;;6.25;46.17;96431.34;5066926;28;20455;-68
2024/01/19 09:49:56;;;;;;;19.47;14.10;;;;;;;6.45;45.59;96433.41;5060599;28;20506;-68
2024/01/19 09:52:48;;;;;;;19.17;13.00;;;;;;;6.03;46.01;96433.66;5069429;28;21295;-68
2024/01/19 09:55:15;;;;;;;24.40;13.90;;;;;;;6.99;44.74;96440.56;5069427;28;20424;-67
2024/01/19 09:57:50;;;;;;;20.30;14.67;;;;;;;7.41;43.31;96443.66;5064219;28;20432;-67
2024/01/19 10:00:18;;;;;;;35.90;14.50;;;;;;;7.41;43.39;96448.88;5078592;28;20443;-69
2024/01/19 10:02:46;;;;;;;22.00;12.60;;;;;;;6.85;43.72;96448.81;5091467;28;21086;-69
2024/01/19 10:05:14;;;;;;;15.30;13.00;;;;;;;7.02;43.28;96450.09;5077608;28;20440;-69
2024/01/19 10:07:41;;;;;;;15.10;13.00;;;;;;;7.26;43.02;96451.13;5069224;28;20452;-68
2024/01/19 10:10:08;;;;;;;21.37;10.90;;;;;;;7.52;41.74;96447.72;5077513;28;20451;-67
2024/01/19 10:12:34;;;;;;;14.00;7.73;;;;;;;7.33;39.89;96456.09;5076461;28;21048;-68
2024/01/19 10:15:00;;;;;;;8.63;6.73;;;;;;;7.54;39.29;96459.81;5075160;28;20448;-67
2024/01/19 10:17:26;;;;;;;10.67;7.60;;;;;;;6.67;40.22;96458.00;5059985;28;20433;-67
2024/01/19 10:19:52;;;;;;;7.97;6.93;;;;;;;6.24;40.66;96466.13;5069311;28;20197;-69
2024/01/19 10:22:28;;;;;;;11.87;7.70;;;;;;;5.92;42.00;96478.16;5072646;28;20985;-68
2024/01/19 10:25:04;;;;;;;12.20;7.63;;;;;;;5.57;41.46;96479.84;5080381;28;20178;-69
2024/01/19 10:27:47;;;;;;;8.10;7.20;;;;;;;5.37;42.03;96482.06;5080018;28;20434;-68
2024/01/19 10:30:15;;;;;;;9.87;7.10;;;;;;;5.06;43.10;96495.72;5065122;28;20603;-69
2024/01/19 10:32:43;;;;;;;10.60;7.20;;;;;;;5.11;43.09;96493.88;5066930;28;20436;-69
2024/01/19 10:35:14;;;;;;;8.33;7.10;;;;;;;4.93;43.84;96492.50;5050006;28;20814;-68
2024/01/19 10:37:40;;;;;;;13.77;7.77;;;;;;;5.02;44.25;96496.66;5066987;28;20444;-68
2024/01/19 10:40:18;;;;;;;8.90;7.27;;;;;;;4.29;45.86;96498.91;5067907;28;21098;-67
2024/01/19 10:42:45;;;;;;;9.43;7.30;;;;;;;4.83;44.63;96483.19;5063091;28;20711;-67
2024/01/19 10:45:38;;;;;;;10.70;7.40;;;;;;;5.49;42.05;96480.03;5052663;28;20523;-68
2024/01/19 10:48:03;;;;;;;13.67;12.33;;;;;;;5.25;43.04;96485.78;5055104;28;20441;-69
2024/01/19 10:50:30;;;;;;;11.40;8.10;;;;;;;5.55;42.01;96486.84;5060837;28;20463;-69
2024/01/19 10:52:58;;;;;;;20.20;7.30;;;;;;;5.64;40.85;96489.22;5065757;28;20212;-68
2024/01/19 10:55:28;;;;;;;13.13;7.80;;;;;;;5.66;40.80;96499.59;5076780;28;20461;-67
2024/01/19 10:57:58;;;;;;;25.13;8.77;;;;;;;5.86;40.69;96504.38;5063666;28;21025;-67
2024/01/19 11:00:28;;;;;;;12.57;8.00;;;;;;;5.80;40.83;96500.16;5074177;28;20838;-68
2024/01/19 11:03:02;;;;;;;34.03;9.43;;;;;;;5.41;42.04;96500.16;5059035;28;20502;-68
2024/01/19 11:05:28;;;;;;;14.57;7.10;;;;;;;5.29;42.77;96503.91;5065946;28;20429;-68
2024/01/19 11:07:55;;;;;;;18.30;7.53;;;;;;;5.14;41.59;96504.19;5066149;28;20462;-67
2024/01/19 11:10:21;;;;;;;7.70;6.30;;;;;;;4.90;41.87;96502.13;5076755;28;20509;-67
2024/01/19 11:12:59;;;;;;;31.07;11.17;;;;;;;4.85;42.25;96499.59;5058015;28;22448;-68
2024/01/19 11:15:38;;;;;;;7.20;6.47;;;;;;;4.55;42.68;96509.69;5056666;28;20431;-66
2024/01/19 11:18:06;;;;;;;11.70;6.87;;;;;;;4.48;42.59;96502.03;5071884;28;20428;-66
2024/01/19 11:20:33;;;;;;;13.60;6.80;;;;;;;4.59;41.77;96505.31;5086377;27;20464;-66
2024/01/19 11:23:00;;;;;;;10.23;6.40;;;;;;;4.47;42.24;96501.19;5064715;28;20552;-67
2024/01/19 11:26:13;;;;;;;39.40;8.93;;;;;;;4.73;43.28;96499.84;5069796;28;20440;-67
2024/01/19 11:29:00;;;;;;;33.50;8.97;;;;;;;5.46;41.59;96507.88;5035547;28;20468;-66